createdAt,value
2017-10-14T10:57:25.254Z,43.60
2017-10-14T11:02:26.333Z,43.60
2017-10-14T11:07:28.120Z,41.30
2017-10-14T11:12:29.190Z,41.30
2017-10-14T11:17:30.269Z,42.60
2017-10-14T11:22:32.070Z,40.60
2017-10-14T11:27:33.119Z,40.60
2017-10-14T11:32:34.182Z,39.30
2017-10-14T11:37:35.244Z,39.90
2017-10-14T11:42:36.295Z,38.60
2017-10-14T11:47:37.332Z,40.00
2017-10-14T11:52:38.479Z,38.70
2017-10-14T11:57:39.573Z,36.30
2017-10-14T12:02:40.634Z,37.40
2017-10-14T12:07:41.742Z,37.00
2017-10-14T12:12:44.818Z,35.30
2017-10-14T12:17:47.650Z,34.10
2017-10-14T12:22:48.752Z,34.20
2017-10-14T12:27:49.874Z,35.10
2017-10-14T12:32:50.981Z,33.20
2017-10-14T12:37:52.188Z,32.70
2017-10-14T12:42:53.286Z,32.80
2017-10-14T12:47:54.373Z,33.30
2017-10-14T12:52:56.281Z,32.10
2017-10-14T12:57:57.389Z,31.40
2017-10-14T13:02:58.500Z,33.30
2017-10-14T13:07:59.609Z,33.80
2017-10-14T13:13:00.718Z,33.00
2017-10-14T13:18:01.826Z,33.40
2017-10-14T13:23:02.926Z,33.00
2017-10-14T13:28:04.035Z,33.30
2017-10-14T13:33:05.145Z,35.40
2017-10-14T13:38:06.218Z,35.50
2017-10-14T13:43:07.390Z,35.00
2017-10-14T13:48:08.515Z,35.60
2017-10-14T13:53:10.393Z,36.10
2017-10-14T13:58:11.502Z,36.10
2017-10-14T14:03:12.670Z,35.90
2017-10-14T14:08:13.822Z,36.50
2017-10-14T14:13:14.937Z,37.20
2017-10-14T14:18:16.101Z,38.10
2017-10-14T14:23:17.186Z,38.50
2017-10-14T14:28:18.276Z,39.90
2017-10-14T14:33:19.378Z,39.70
2017-10-14T14:38:20.484Z,39.30
2017-10-14T14:43:21.548Z,39.90
2017-10-14T14:48:23.392Z,42.10
2017-10-14T14:53:24.501Z,42.00
2017-10-14T14:58:25.581Z,42.60
2017-10-14T15:03:27.418Z,43.90
2017-10-14T15:08:28.506Z,43.90
2017-10-14T15:13:30.657Z,45.00
2017-10-14T15:18:31.738Z,45.00
2017-10-14T15:23:32.820Z,45.70
2017-10-14T15:28:33.906Z,46.70
2017-10-14T15:33:35.001Z,47.00
2017-10-14T15:38:36.159Z,47.20
2017-10-14T15:43:37.223Z,48.30
2017-10-14T15:48:38.313Z,49.00
2017-10-14T15:53:39.421Z,49.70
2017-10-14T15:58:40.819Z,50.80
2017-10-14T16:03:42.698Z,54.80
2017-10-14T16:08:43.810Z,54.70
2017-10-14T16:14:02.178Z,55.60
2017-10-14T16:19:03.295Z,57.10
2017-10-14T16:24:08.629Z,61.10
2017-10-14T16:29:09.822Z,61.10
2017-10-14T16:34:11.028Z,62.50
2017-10-14T16:39:12.192Z,64.10
2017-10-14T16:44:13.376Z,65.80
2017-10-14T16:49:14.519Z,67.20
2017-10-14T16:54:15.683Z,69.10
2017-10-14T16:59:16.800Z,70.50
2017-10-14T17:04:17.921Z,71.00
2017-10-14T17:09:19.036Z,71.20
2017-10-14T17:14:20.131Z,73.00
2017-10-14T17:19:21.230Z,73.70
2017-10-14T17:24:22.368Z,74.70
2017-10-14T17:29:24.236Z,77.80
2017-10-14T17:34:25.318Z,77.70
2017-10-14T17:39:26.416Z,78.30
2017-10-14T17:44:27.499Z,79.90
2017-10-14T17:49:32.518Z,81.90
2017-10-14T17:54:33.609Z,82.40
2017-10-14T17:59:34.706Z,82.80
2017-10-14T18:04:35.765Z,83.60
2017-10-14T18:09:38.088Z,85.20
2017-10-14T18:14:39.190Z,85.10
2017-10-14T18:19:41.047Z,85.50
2017-10-14T18:24:42.125Z,85.50
2017-10-14T18:29:43.974Z,88.10
2017-10-14T18:34:48.807Z,87.40
2017-10-14T18:39:49.904Z,87.30
2017-10-14T18:44:51.748Z,89.10
2017-10-14T18:49:52.857Z,89.10
2017-10-14T18:54:54.673Z,90.40
2017-10-14T18:59:55.753Z,90.40
2017-10-14T19:04:56.835Z,90.90
2017-10-14T19:09:59.788Z,91.80
2017-10-14T19:15:01.001Z,91.80
2017-10-14T19:20:02.874Z,92.10
2017-10-14T19:25:04.752Z,92.10
2017-10-14T19:30:06.586Z,92.20
2017-10-14T19:35:07.661Z,92.20
2017-10-14T19:40:08.750Z,92.30
2017-10-14T19:45:10.564Z,92.40
2017-10-14T19:50:11.669Z,92.30
2017-10-14T19:55:12.756Z,92.30
2017-10-14T20:00:13.857Z,92.30
2017-10-14T20:05:14.965Z,93.00
2017-10-14T20:10:16.073Z,93.20
2017-10-14T20:15:17.174Z,93.40
2017-10-14T20:20:20.016Z,93.50
2017-10-14T20:25:21.113Z,93.50
2017-10-14T20:30:22.225Z,93.50
2017-10-14T20:35:23.310Z,93.60
2017-10-14T20:40:24.408Z,93.70
2017-10-14T20:45:25.489Z,93.70
2017-10-14T20:50:26.581Z,93.70
2017-10-14T20:55:27.657Z,93.80
2017-10-14T21:00:28.765Z,93.80
2017-10-14T21:05:32.893Z,93.80
2017-10-14T21:10:37.765Z,93.80
2017-10-14T21:15:38.839Z,93.80
2017-10-14T21:20:39.961Z,93.90
2017-10-14T21:25:41.063Z,93.90
2017-10-14T21:30:42.217Z,93.90
2017-10-14T21:35:43.333Z,93.90
2017-10-14T21:40:45.540Z,93.90
2017-10-14T21:45:46.718Z,93.90
2017-10-14T21:50:47.837Z,94.00
2017-10-14T21:55:53.439Z,94.10
2017-10-14T22:00:55.317Z,93.80
2017-10-14T22:05:56.386Z,94.00
2017-10-14T22:10:58.215Z,94.10
2017-10-14T22:16:00.031Z,94.00
2017-10-14T22:21:01.152Z,94.00
2017-10-14T22:26:02.247Z,94.10
2017-10-14T22:31:03.407Z,94.10
2017-10-14T22:36:04.473Z,94.00
2017-10-14T22:41:05.587Z,94.10
2017-10-14T22:46:07.403Z,94.20
2017-10-14T22:51:08.493Z,94.20
2017-10-14T22:56:09.586Z,94.30
2017-10-14T23:01:10.697Z,94.00
2017-10-14T23:06:11.826Z,94.10
2017-10-14T23:11:12.918Z,94.10
2017-10-14T23:16:14.758Z,94.10
2017-10-14T23:21:15.836Z,94.20
2017-10-14T23:26:16.949Z,94.10
2017-10-14T23:31:18.028Z,94.20
2017-10-14T23:36:19.086Z,94.10
2017-10-14T23:41:20.152Z,94.00
2017-10-14T23:46:21.226Z,94.10
2017-10-14T23:51:22.322Z,94.10
2017-10-14T23:56:24.133Z,94.00
